SBOSBO DUS / EDDL
Speedbird OnlineSpeedbird Online DUS / EDDL

Düsseldorf Airport
22:27 8.7°C

Location Duesseldorf, Germany
Latitude: 51.289501
Longitude: 6.76678
Local Time 22:27 on 18 Apr 2024
UTC +2 hours (Europe/Berlin)
Currency £1 equals EUR 1.17
METAR EDDL 181950Z AUTO 26004KT CAVOK 09/03 Q1019 NOSIG
TAF TAF EDDL 181700Z 1818/1924 31008KT 9999 SCT040 BECMG 1819/1822 23007KT BECMG 1823/1902 22013KT TEMPO 1902/1910 RA BECMG 1903/1906 25015G25KT BKN011 PROB40 TEMPO 1905/1910 BKN008 BECMG 1908/1911 BKN015 TEMPO 1910/1919 29020G35KT 4500 SHRA BKN020CB BECMG 1911/1914 31015G25KT BECMG 1917/1920 31011KT
Weather As Of 18 Apr 2024 22:05
Description Clear sky
Wind 7 km/h from West (260°)
Cloud Cover 0%
Precipitation Rain: none, Snow: none
Sunrise 06:30
Sunset 20:33
NOTAM 47 active NOTAM
Rotations During the last 90 days there were
318 flights from LHR
156 flights from LCY
35 flights from BLL
317 flights to LHR
147 flights to LCY
35 flights to BLL
Lounges Hugo Junkers Lounge , Terminal B
Open Sky Lounge, Terminal C
Web Airport Website | Wikipedia
Codes IATA: DUS
ICAO: EDDL
Altitude 45 Meter / 147 Feet
Distance 460 KM / 286 Miles
from London.
Runways
RunwayLength (m)Surface
05L2700Concrete
05R3000Concrete
23L3000Concrete
23R2700Concrete
Radio
TypeDescriptionFrequency
ACCLANGEN RADAR128.55
APPDIR128.65
ATISATIS123.78
CLDCLNC DEL121.775
GNDGND121.9
INFOLANGEN INFO129.875
MISCDE ICING135.225
TWRTWR118.3
Live ATC



Support Speedbird Online

© 2017-2024 Speedbird Online